createdAt,value
2022-12-14T00:01:56.481Z,-6.50
2022-12-14T00:04:23.560Z,-7.10
2022-12-14T00:06:51.611Z,-7.50
2022-12-14T00:09:19.857Z,-7.90
2022-12-14T00:11:48.236Z,-8.20
2022-12-14T00:14:16.601Z,-8.40
2022-12-14T00:16:45.475Z,-8.50
2022-12-14T00:19:17.538Z,-8.60
2022-12-14T00:21:49.576Z,-8.70
2022-12-14T00:24:20.026Z,-8.70
2022-12-14T00:26:47.138Z,-8.80
2022-12-14T00:29:15.841Z,-8.90
2022-12-14T00:31:44.221Z,-8.90
2022-12-14T00:34:25.400Z,-8.90
2022-12-14T00:36:54.795Z,-9.00
2022-12-14T00:39:24.800Z,-9.00
2022-12-14T00:41:53.370Z,-9.10
2022-12-14T00:44:21.536Z,-9.20
2022-12-14T00:46:49.653Z,-9.20
2022-12-14T00:49:19.797Z,-9.20
2022-12-14T00:51:58.431Z,-9.30
2022-12-14T00:54:26.491Z,-9.30
2022-12-14T00:56:55.551Z,-9.40
2022-12-14T00:59:27.326Z,-9.40
2022-12-14T01:01:58.834Z,-9.40
2022-12-14T01:04:29.141Z,-9.40
2022-12-14T01:07:04.960Z,-9.30
2022-12-14T01:09:33.056Z,-9.30
2022-12-14T01:12:02.671Z,-9.30
2022-12-14T01:14:32.320Z,-9.40
2022-12-14T01:17:02.700Z,-9.20
2022-12-14T01:19:33.464Z,-7.50
2022-12-14T01:22:04.037Z,-6.90
2022-12-14T01:24:40.019Z,-7.50
2022-12-14T01:27:08.420Z,-7.90
2022-12-14T01:29:44.308Z,-8.20
2022-12-14T01:32:20.278Z,-8.40
2022-12-14T01:35:13.084Z,-8.60
2022-12-14T01:37:40.320Z,-8.70
2022-12-14T01:40:12.738Z,-8.80
2022-12-14T01:42:40.939Z,-8.90
2022-12-14T01:45:24.010Z,-8.90
2022-12-14T01:48:05.736Z,-9.00
2022-12-14T01:50:54.219Z,-9.10
2022-12-14T01:53:26.438Z,-9.10
2022-12-14T01:55:56.836Z,-9.20
2022-12-14T01:58:29.308Z,-9.20
2022-12-14T02:01:05.783Z,-9.30
2022-12-14T02:03:59.560Z,-9.30
2022-12-14T02:06:44.574Z,-9.40
2022-12-14T02:09:20.110Z,-9.40
2022-12-14T02:12:15.699Z,-9.50
2022-12-14T02:15:05.505Z,-9.50
2022-12-14T02:17:35.401Z,-9.50
2022-12-14T02:23:13.220Z,-9.50
2022-12-14T02:26:27.557Z,-9.50
2022-12-14T02:29:53.329Z,-9.60
2022-12-14T02:32:49.676Z,-9.60
2022-12-14T02:35:16.599Z,-9.70
2022-12-14T02:37:49.200Z,-9.70
2022-12-14T02:40:28.367Z,-9.70
2022-12-14T02:43:19.363Z,-9.70
2022-12-14T02:46:00.655Z,-9.80
2022-12-14T02:48:36.079Z,-9.80
2022-12-14T02:51:30.444Z,-9.90
2022-12-14T02:54:06.638Z,-9.90
2022-12-14T02:56:43.278Z,-8.90
2022-12-14T02:59:12.059Z,-7.30
2022-12-14T03:01:41.173Z,-7.60
2022-12-14T03:04:08.768Z,-8.00
2022-12-14T03:06:35.871Z,-8.30
2022-12-14T03:09:17.739Z,-8.60
2022-12-14T03:11:48.585Z,-8.70
2022-12-14T03:14:21.660Z,-8.80
2022-12-14T03:16:52.018Z,-9.00
2022-12-14T03:19:23.774Z,-9.20
2022-12-14T03:22:00.395Z,-9.30
2022-12-14T03:24:43.278Z,-9.30
2022-12-14T03:27:20.171Z,-9.40
2022-12-14T03:30:18.439Z,-9.30
2022-12-14T03:32:57.689Z,-9.40
2022-12-14T03:35:33.602Z,-9.50
2022-12-14T03:38:12.839Z,-9.50
2022-12-14T03:41:05.391Z,-9.40
2022-12-14T03:43:49.780Z,-9.50
2022-12-14T03:47:16.004Z,-9.50
2022-12-14T03:50:06.515Z,-9.50
2022-12-14T03:52:39.760Z,-9.50
2022-12-14T03:55:28.141Z,-9.50
2022-12-14T03:58:16.993Z,-9.50
2022-12-14T04:01:00.557Z,-9.50
2022-12-14T04:03:36.635Z,-9.50
2022-12-14T04:06:09.939Z,-9.50
2022-12-14T04:09:05.995Z,-9.50
2022-12-14T04:11:58.558Z,-9.60
2022-12-14T04:14:58.836Z,-9.60
2022-12-14T04:17:50.999Z,-9.60
2022-12-14T04:20:26.755Z,-9.60
2022-12-14T04:23:01.835Z,-9.60
2022-12-14T04:25:55.959Z,-9.70
2022-12-14T04:28:57.940Z,-9.70
2022-12-14T04:31:29.459Z,-9.70
2022-12-14T04:33:59.695Z,-9.70
2022-12-14T04:36:47.115Z,-9.20
2022-12-14T04:39:18.794Z,-8.50
2022-12-14T04:41:50.161Z,-8.00
2022-12-14T04:44:32.494Z,-7.50
2022-12-14T04:47:01.315Z,-7.10
2022-12-14T04:49:40.416Z,-6.80
2022-12-14T04:52:26.942Z,-6.50
2022-12-14T04:54:58.624Z,-6.30
2022-12-14T04:57:28.414Z,-6.00
2022-12-14T04:59:56.400Z,-5.80
2022-12-14T05:03:03.841Z,-5.70
2022-12-14T05:05:47.980Z,-5.50
2022-12-14T05:08:32.520Z,-5.30
2022-12-14T05:14:49.344Z,-4.90
2022-12-14T05:17:16.894Z,-4.80
2022-12-14T05:19:49.170Z,-4.60
2022-12-14T05:22:17.263Z,-4.50
2022-12-14T05:24:44.400Z,-4.40
2022-12-14T05:27:11.441Z,-4.40
2022-12-14T05:29:38.503Z,-4.20
2022-12-14T05:32:05.639Z,-4.20
2022-12-14T05:34:32.638Z,-4.10
2022-12-14T05:36:59.645Z,-4.00
2022-12-14T05:39:26.656Z,-3.90
2022-12-14T05:41:53.774Z,-3.80
2022-12-14T05:44:21.202Z,-3.80
2022-12-14T05:46:48.282Z,-3.70
2022-12-14T05:49:15.314Z,-3.70
2022-12-14T05:51:42.359Z,-3.60
2022-12-14T05:54:09.479Z,-3.50
2022-12-14T05:56:36.545Z,-3.50
2022-12-14T05:59:03.523Z,-3.40
2022-12-14T06:01:30.904Z,-3.30
2022-12-14T06:03:57.995Z,-3.20
2022-12-14T06:06:25.193Z,-3.20
2022-12-14T06:08:52.199Z,-3.20
2022-12-14T06:11:22.039Z,-3.20
2022-12-14T06:13:49.563Z,-3.20
2022-12-14T06:16:22.581Z,-3.20
2022-12-14T06:18:55.202Z,-3.20
2022-12-14T06:21:25.790Z,-3.20
2022-12-14T06:23:53.360Z,-3.20
2022-12-14T06:26:20.558Z,-3.10
2022-12-14T06:28:47.662Z,-3.10
2022-12-14T06:31:22.580Z,-3.00
2022-12-14T06:33:50.331Z,-2.90
2022-12-14T06:36:19.960Z,-2.90
2022-12-14T06:38:47.252Z,-2.80
2022-12-14T06:41:14.299Z,-2.80
2022-12-14T06:43:41.299Z,-2.80
2022-12-14T06:46:14.855Z,-2.70
2022-12-14T06:48:43.456Z,-2.70
2022-12-14T06:51:11.621Z,-2.60
2022-12-14T06:53:38.640Z,-2.60
2022-12-14T06:56:10.280Z,-2.60
2022-12-14T06:58:37.758Z,-2.60
2022-12-14T07:01:06.404Z,-2.60
2022-12-14T07:03:33.993Z,-2.60
2022-12-14T07:06:02.488Z,-2.60
2022-12-14T07:08:31.846Z,-2.60
2022-12-14T07:11:02.869Z,-2.50
2022-12-14T07:13:30.402Z,-2.50
2022-12-14T07:15:59.889Z,-2.40
2022-12-14T07:18:28.040Z,-2.40
2022-12-14T07:21:07.184Z,-2.30
2022-12-14T07:23:37.885Z,-2.20
2022-12-14T07:26:15.258Z,-2.30
2022-12-14T07:28:43.344Z,-2.40
2022-12-14T07:31:18.836Z,-2.40
2022-12-14T07:33:46.024Z,-2.40
2022-12-14T07:36:18.487Z,-2.30
2022-12-14T07:38:47.056Z,-2.20
2022-12-14T07:41:22.042Z,-2.10
2022-12-14T07:43:50.538Z,-2.00
2022-12-14T07:46:23.498Z,-1.90
2022-12-14T07:48:53.361Z,-1.80
2022-12-14T07:51:23.245Z,-1.80
2022-12-14T07:53:51.159Z,-1.70
2022-12-14T07:56:20.778Z,-1.70
2022-12-14T07:58:48.128Z,-1.60
2022-12-14T08:01:22.530Z,-1.60
2022-12-14T08:04:01.359Z,-1.60
2022-12-14T08:06:29.484Z,-1.70
2022-12-14T08:08:57.696Z,-1.70
2022-12-14T08:11:25.477Z,-1.70
2022-12-14T08:13:57.793Z,-1.70
2022-12-14T08:16:25.726Z,-1.60
2022-12-14T08:18:57.279Z,-1.60
2022-12-14T08:21:25.054Z,-1.70
2022-12-14T08:23:53.169Z,-1.60
2022-12-14T08:26:21.549Z,-1.60
2022-12-14T08:28:48.881Z,-1.60
2022-12-14T08:31:21.303Z,-1.60
2022-12-14T08:33:49.023Z,-1.50
2022-12-14T08:36:24.705Z,-1.70
2022-12-14T08:38:56.291Z,-1.70
2022-12-14T08:41:24.082Z,-1.60
2022-12-14T08:43:52.518Z,-1.60
2022-12-14T08:46:20.191Z,-1.60
2022-12-14T08:48:49.220Z,-1.60
2022-12-14T08:51:16.274Z,-1.50
2022-12-14T08:53:43.403Z,-2.20
2022-12-14T08:56:16.112Z,-3.40
2022-12-14T08:58:43.758Z,-4.50
2022-12-14T09:01:16.595Z,-5.40
2022-12-14T09:03:45.119Z,-5.70
2022-12-14T09:06:18.604Z,-6.00
2022-12-14T09:08:47.234Z,-5.70
2022-12-14T09:11:19.161Z,-4.90
2022-12-14T09:13:47.037Z,-4.00
2022-12-14T09:16:20.284Z,-3.40
2022-12-14T09:18:48.483Z,-2.70
2022-12-14T09:21:16.286Z,-2.20
2022-12-14T09:23:43.374Z,-1.90
2022-12-14T09:26:19.425Z,-1.70
2022-12-14T09:28:52.078Z,-1.50
2022-12-14T09:31:22.333Z,-1.10
2022-12-14T09:33:49.906Z,-0.90
2022-12-14T09:36:22.240Z,-0.70
2022-12-14T09:38:52.261Z,-0.40
2022-12-14T09:41:30.419Z,-0.30
2022-12-14T09:44:17.884Z,-0.10
2022-12-14T09:46:54.766Z,-0.20
2022-12-14T09:49:33.680Z,0.00
2022-12-14T09:52:06.760Z,0.10
2022-12-14T09:54:37.983Z,0.20
2022-12-14T09:57:11.898Z,0.20
2022-12-14T09:59:38.979Z,0.30
2022-12-14T10:02:32.960Z,0.40
2022-12-14T10:05:33.174Z,0.50
2022-12-14T10:08:18.550Z,0.50
2022-12-14T10:10:50.849Z,0.60
2022-12-14T10:13:36.482Z,0.70
2022-12-14T10:16:34.463Z,0.60
2022-12-14T10:19:19.881Z,0.40
2022-12-14T10:22:14.485Z,0.50
2022-12-14T10:24:52.123Z,0.50
2022-12-14T10:27:24.954Z,0.50
2022-12-14T10:30:16.618Z,0.60
2022-12-14T10:32:54.745Z,0.40
2022-12-14T10:35:40.231Z,0.40
2022-12-14T10:38:19.735Z,0.60
2022-12-14T10:40:50.255Z,0.60
2022-12-14T10:43:38.919Z,0.70
2022-12-14T10:46:45.227Z,0.80
2022-12-14T10:49:20.340Z,0.90
2022-12-14T10:51:55.801Z,1.00
2022-12-14T10:54:30.015Z,1.00
2022-12-14T10:56:57.470Z,1.10
2022-12-14T10:59:39.288Z,1.20
2022-12-14T11:02:17.429Z,1.30
2022-12-14T11:04:47.589Z,1.30
2022-12-14T11:07:16.281Z,1.30
2022-12-14T11:09:44.229Z,1.40
2022-12-14T11:12:14.525Z,1.40
2022-12-14T11:14:52.963Z,1.40
2022-12-14T11:17:44.419Z,1.40
2022-12-14T11:20:25.487Z,1.40
2022-12-14T11:23:08.407Z,1.40
2022-12-14T11:25:39.929Z,1.40
2022-12-14T11:28:37.800Z,1.40
2022-12-14T11:31:38.040Z,1.30
2022-12-14T11:34:29.023Z,-0.40
2022-12-14T11:36:56.071Z,-2.10
2022-12-14T11:39:26.239Z,-2.90
2022-12-14T11:41:59.385Z,-3.10
2022-12-14T11:44:33.344Z,-3.20
2022-12-14T11:47:00.488Z,-3.60
2022-12-14T11:49:39.305Z,-3.80
2022-12-14T11:52:06.245Z,-3.90
2022-12-14T11:54:36.182Z,-3.20
2022-12-14T11:57:37.539Z,-2.50
2022-12-14T12:00:29.098Z,-1.70
2022-12-14T12:03:04.053Z,-0.90
2022-12-14T12:05:33.517Z,-0.60
2022-12-14T12:08:02.927Z,-0.20
2022-12-14T12:10:45.320Z,0.00
2022-12-14T12:13:35.503Z,0.20
2022-12-14T12:16:08.378Z,0.30
2022-12-14T12:18:57.698Z,0.50
2022-12-14T12:21:38.794Z,0.50
2022-12-14T12:24:25.288Z,0.60
2022-12-14T12:26:58.080Z,0.70
2022-12-14T12:29:38.618Z,0.70
2022-12-14T12:32:11.480Z,0.80
2022-12-14T12:34:46.919Z,0.80
2022-12-14T12:37:29.974Z,0.30
2022-12-14T12:40:10.092Z,-1.40
2022-12-14T12:43:11.478Z,-3.20
2022-12-14T12:45:44.494Z,-4.30
2022-12-14T12:48:25.711Z,-5.20
2022-12-14T12:51:07.155Z,-5.60
2022-12-14T12:53:48.108Z,-5.80
2022-12-14T12:56:19.939Z,-6.10
2022-12-14T12:58:52.971Z,-6.20
2022-12-14T13:01:35.484Z,-6.30
2022-12-14T13:04:07.135Z,-6.50
2022-12-14T13:06:51.894Z,-6.70
2022-12-14T13:09:34.324Z,-6.90
2022-12-14T13:12:03.527Z,-6.90
2022-12-14T13:14:43.689Z,-7.00
2022-12-14T13:17:50.078Z,-7.10
2022-12-14T13:20:27.660Z,-7.10
2022-12-14T13:22:57.375Z,-7.20
2022-12-14T13:25:30.509Z,-7.20
2022-12-14T13:28:13.520Z,-7.30
2022-12-14T13:30:46.556Z,-7.30
2022-12-14T13:33:51.129Z,-7.40
2022-12-14T13:36:32.107Z,-7.50
2022-12-14T13:39:14.375Z,-7.60
2022-12-14T13:42:06.802Z,-7.60
2022-12-14T13:44:57.213Z,-7.70
2022-12-14T13:47:39.598Z,-7.70
2022-12-14T13:53:27.591Z,-7.70
2022-12-14T13:56:05.158Z,-7.70
2022-12-14T13:58:38.836Z,-7.80
2022-12-14T14:01:44.720Z,-7.80
2022-12-14T14:04:14.150Z,-7.90
2022-12-14T14:06:47.489Z,-7.80
2022-12-14T14:09:26.879Z,-7.90
2022-12-14T14:12:24.329Z,-8.00
2022-12-14T14:14:57.865Z,-8.00
2022-12-14T14:17:27.730Z,-8.00
2022-12-14T14:19:56.960Z,-7.20
2022-12-14T14:22:27.420Z,-6.10
2022-12-14T14:25:02.071Z,-5.20
2022-12-14T14:27:37.385Z,-4.50
2022-12-14T14:30:24.497Z,-3.90
2022-12-14T14:32:54.228Z,-3.50
2022-12-14T14:35:30.540Z,-3.20
2022-12-14T14:38:04.938Z,-2.90
2022-12-14T14:41:13.928Z,-2.80
2022-12-14T14:43:37.501Z,-2.70
2022-12-14T14:46:07.504Z,-2.50
2022-12-14T14:48:40.436Z,-2.40
2022-12-14T14:51:14.899Z,-2.30
2022-12-14T14:53:42.020Z,-2.10
2022-12-14T14:56:46.588Z,-2.10
2022-12-14T14:59:26.459Z,-2.10
2022-12-14T15:02:02.214Z,-2.00
2022-12-14T15:04:56.891Z,-2.00
2022-12-14T15:07:32.000Z,-2.00
2022-12-14T15:10:32.182Z,-2.00
2022-12-14T15:13:20.095Z,-2.00
2022-12-14T15:15:51.860Z,-2.00
2022-12-14T15:18:28.436Z,-2.00
2022-12-14T15:21:16.930Z,-1.90
2022-12-14T15:23:58.579Z,-1.90
2022-12-14T15:29:27.305Z,-2.00
2022-12-14T15:32:06.957Z,-2.00
2022-12-14T15:34:38.853Z,-2.00
2022-12-14T15:37:07.365Z,-1.90
2022-12-14T15:39:46.279Z,-1.90
2022-12-14T15:42:22.303Z,-1.90
2022-12-14T15:44:59.229Z,-1.90
2022-12-14T15:47:32.424Z,-1.90
2022-12-14T15:50:45.384Z,-1.90
2022-12-14T15:53:34.423Z,-1.90
2022-12-14T15:56:25.175Z,-1.90
2022-12-14T15:59:01.739Z,-1.90
2022-12-14T16:01:54.153Z,-1.90
2022-12-14T16:04:39.077Z,-2.00
2022-12-14T16:07:26.376Z,-2.00
2022-12-14T16:10:02.097Z,-2.00
2022-12-14T16:12:53.024Z,-2.10
2022-12-14T16:15:33.224Z,-2.10
2022-12-14T16:18:03.707Z,-2.30
2022-12-14T16:20:40.249Z,-2.30
2022-12-14T16:23:18.996Z,-2.50
2022-12-14T16:26:05.808Z,-2.60
2022-12-14T16:28:38.509Z,-2.60
2022-12-14T16:31:21.969Z,-2.60
2022-12-14T16:34:09.758Z,-2.60
2022-12-14T16:36:40.402Z,-2.70
2022-12-14T16:39:27.386Z,-2.70
2022-12-14T16:42:06.843Z,-2.60
2022-12-14T16:44:42.519Z,-2.60
2022-12-14T16:47:24.764Z,-2.60
2022-12-14T16:50:01.630Z,-2.50
2022-12-14T16:52:34.439Z,-2.40
2022-12-14T16:55:23.635Z,-2.40
2022-12-14T16:58:00.483Z,-2.30
2022-12-14T17:00:34.399Z,-2.30
2022-12-14T17:03:08.368Z,-2.30
2022-12-14T17:05:42.095Z,-2.30
2022-12-14T17:08:19.399Z,-2.30
2022-12-14T17:10:47.653Z,-2.40
2022-12-14T17:13:19.163Z,-2.50
2022-12-14T17:16:10.399Z,-2.60
2022-12-14T17:18:42.669Z,-2.70
2022-12-14T17:21:23.506Z,-2.80
2022-12-14T17:23:53.920Z,-2.90
2022-12-14T17:26:34.259Z,-2.80
2022-12-14T17:29:10.806Z,-2.80
2022-12-14T17:31:44.615Z,-2.80
2022-12-14T17:34:21.041Z,-2.70
2022-12-14T17:36:51.900Z,-2.70
2022-12-14T17:39:22.044Z,-2.70
2022-12-14T17:41:57.959Z,-2.70
2022-12-14T17:44:26.249Z,-2.80
2022-12-14T17:46:57.860Z,-2.80
2022-12-14T17:49:36.740Z,-2.80
2022-12-14T17:52:10.551Z,-2.80
2022-12-14T17:54:41.910Z,-2.90
2022-12-14T17:57:24.881Z,-2.90
2022-12-14T18:00:13.955Z,-3.00
2022-12-14T18:02:51.615Z,-3.00
2022-12-14T18:05:23.555Z,-3.00
2022-12-14T18:08:02.535Z,-3.10
2022-12-14T18:10:40.574Z,-3.00
2022-12-14T18:13:10.981Z,-3.00
2022-12-14T18:15:50.094Z,-3.00
2022-12-14T18:18:27.889Z,-3.00
2022-12-14T18:21:04.653Z,-3.00
2022-12-14T18:23:42.159Z,-3.40
2022-12-14T18:26:10.799Z,-4.70
2022-12-14T18:28:47.424Z,-5.80
2022-12-14T18:31:33.039Z,-6.60
2022-12-14T18:34:03.039Z,-7.30
2022-12-14T18:36:43.222Z,-7.70
2022-12-14T18:39:11.644Z,-8.00
2022-12-14T18:41:42.064Z,-8.30
2022-12-14T18:44:22.252Z,-8.50
2022-12-14T18:46:50.090Z,-8.60
2022-12-14T18:49:17.239Z,-8.70
2022-12-14T18:51:49.224Z,-8.80
2022-12-14T18:54:16.432Z,-8.90
2022-12-14T18:56:47.247Z,-8.90
2022-12-14T18:59:17.214Z,-8.90
2022-12-14T19:01:47.816Z,-8.80
2022-12-14T19:04:15.078Z,-8.90
2022-12-14T19:06:51.069Z,-8.90
2022-12-14T19:09:21.696Z,-9.00
2022-12-14T19:11:50.632Z,-9.10
2022-12-14T19:14:19.087Z,-9.10
2022-12-14T19:16:47.454Z,-9.10
2022-12-14T19:19:27.867Z,-9.10
2022-12-14T19:22:02.259Z,-9.20
2022-12-14T19:24:31.803Z,-9.20
2022-12-14T19:26:59.620Z,-9.20
2022-12-14T19:29:29.872Z,-9.20
2022-12-14T19:32:04.844Z,-9.20
2022-12-14T19:34:34.365Z,-9.30
2022-12-14T19:37:02.722Z,-9.30
2022-12-14T19:39:32.836Z,-9.20
2022-12-14T19:42:04.234Z,-9.30
2022-12-14T19:44:37.065Z,-9.30
2022-12-14T19:47:13.159Z,-9.40
2022-12-14T19:49:47.240Z,-9.40
2022-12-14T19:52:16.136Z,-8.90
2022-12-14T19:54:47.721Z,-6.50
2022-12-14T19:57:19.282Z,-7.10
2022-12-14T19:59:46.906Z,-7.80
2022-12-14T20:02:35.769Z,-8.30
2022-12-14T20:08:00.876Z,-8.70
2022-12-14T20:10:31.246Z,-8.80
2022-12-14T20:13:06.884Z,-8.90
2022-12-14T20:15:35.544Z,-8.90
2022-12-14T20:18:12.781Z,-8.90
2022-12-14T20:20:41.948Z,-9.00
2022-12-14T20:23:09.240Z,-9.00
2022-12-14T20:25:46.477Z,-9.00
2022-12-14T20:28:15.127Z,-9.10
2022-12-14T20:31:06.111Z,-9.10
2022-12-14T20:33:39.151Z,-9.10
2022-12-14T20:36:15.950Z,-9.20
2022-12-14T20:38:43.300Z,-9.20
2022-12-14T20:41:17.189Z,-9.30
2022-12-14T20:43:47.747Z,-9.40
2022-12-14T20:46:46.021Z,-9.50
2022-12-14T20:49:23.679Z,-9.60
2022-12-14T20:51:52.114Z,-9.60
2022-12-14T20:54:22.365Z,-9.70
2022-12-14T20:56:49.968Z,-9.60
2022-12-14T20:59:20.678Z,-9.60
2022-12-14T21:01:55.373Z,-9.60
2022-12-14T21:04:35.146Z,-9.60
2022-12-14T21:07:05.310Z,-9.60
2022-12-14T21:09:34.865Z,-9.60
2022-12-14T21:12:23.240Z,-9.80
2022-12-14T21:15:01.472Z,-9.80
2022-12-14T21:17:33.547Z,-9.90
2022-12-14T21:20:07.909Z,-9.90
2022-12-14T21:22:38.341Z,-9.90
2022-12-14T21:25:10.459Z,-9.90
2022-12-14T21:27:41.981Z,-9.80
2022-12-14T21:30:16.001Z,-8.90
2022-12-14T21:32:46.596Z,-8.30
2022-12-14T21:35:21.163Z,-6.80
2022-12-14T21:37:49.720Z,-7.00
2022-12-14T21:40:40.439Z,-7.40
2022-12-14T21:43:09.256Z,-7.70
2022-12-14T21:45:39.024Z,-7.80
2022-12-14T21:48:10.060Z,-7.90
2022-12-14T21:50:47.709Z,-8.00
2022-12-14T21:53:15.958Z,-8.20
2022-12-14T21:56:13.435Z,-8.40
2022-12-14T21:58:41.977Z,-8.60
2022-12-14T22:01:19.183Z,-8.70
2022-12-14T22:03:54.260Z,-8.60
2022-12-14T22:06:23.140Z,-8.60
2022-12-14T22:09:05.159Z,-8.50
2022-12-14T22:11:32.915Z,-8.50
2022-12-14T22:14:02.501Z,-8.50
2022-12-14T22:16:31.673Z,-8.40
2022-12-14T22:19:00.151Z,-8.40
2022-12-14T22:21:27.999Z,-8.30
2022-12-14T22:23:55.743Z,-8.30
2022-12-14T22:26:23.681Z,-8.30
2022-12-14T22:28:52.644Z,-8.30
2022-12-14T22:31:20.779Z,-8.20
2022-12-14T22:33:49.820Z,-8.10
2022-12-14T22:36:17.985Z,-8.10
2022-12-14T22:38:45.304Z,-8.00
2022-12-14T22:41:14.710Z,-7.80
2022-12-14T22:43:42.853Z,-7.50
2022-12-14T22:46:12.445Z,-7.20
2022-12-14T22:48:40.105Z,-6.90
2022-12-14T22:51:10.900Z,-6.60
2022-12-14T22:53:38.720Z,-6.30
2022-12-14T22:56:21.894Z,-6.00
2022-12-14T22:58:53.379Z,-5.70
2022-12-14T23:01:21.193Z,-5.50
2022-12-14T23:03:48.572Z,-5.40
2022-12-14T23:06:15.759Z,-5.30
2022-12-14T23:09:06.419Z,-5.20
2022-12-14T23:11:53.311Z,-5.00
2022-12-14T23:14:39.919Z,-4.70
2022-12-14T23:17:26.279Z,-4.70
2022-12-14T23:20:11.920Z,-4.70
2022-12-14T23:22:57.940Z,-4.70
2022-12-14T23:25:43.389Z,-4.80
2022-12-14T23:28:29.404Z,-4.60
2022-12-14T23:31:16.384Z,-4.50
2022-12-14T23:34:02.237Z,-4.50
2022-12-14T23:36:47.701Z,-4.40
2022-12-14T23:39:33.160Z,-4.20
2022-12-14T23:42:18.719Z,-4.20
2022-12-14T23:45:04.199Z,-4.30
2022-12-14T23:47:49.678Z,-4.20
2022-12-14T23:50:35.760Z,-4.10
2022-12-14T23:53:27.973Z,-4.10
2022-12-14T23:56:13.498Z,-4.20
2022-12-14T23:58:59.474Z,-4.30
